sensor_id;sensor_type;location;lat;lon;timestamp;P1;durP1;ratioP1;P2;durP2;ratioP2
19679;SDS011;9989;48.962;9.182;2024-03-17T00:01:37;17.57;;;10.50;;
19679;SDS011;9989;48.962;9.182;2024-03-17T00:04:03;16.80;;;11.10;;
19679;SDS011;9989;48.962;9.182;2024-03-17T00:06:29;16.40;;;10.37;;
19679;SDS011;9989;48.962;9.182;2024-03-17T00:08:55;17.63;;;12.10;;
19679;SDS011;9989;48.962;9.182;2024-03-17T00:11:21;17.40;;;11.00;;
19679;SDS011;9989;48.962;9.182;2024-03-17T00:13:46;19.00;;;11.63;;
19679;SDS011;9989;48.962;9.182;2024-03-17T00:16:12;19.30;;;11.93;;
19679;SDS011;9989;48.962;9.182;2024-03-17T00:18:38;18.60;;;11.67;;
19679;SDS011;9989;48.962;9.182;2024-03-17T00:21:05;16.67;;;11.03;;
19679;SDS011;9989;48.962;9.182;2024-03-17T00:23:31;18.47;;;11.40;;
19679;SDS011;9989;48.962;9.182;2024-03-17T00:25:57;20.07;;;11.13;;
19679;SDS011;9989;48.962;9.182;2024-03-17T00:28:22;15.73;;;10.03;;
19679;SDS011;9989;48.962;9.182;2024-03-17T00:30:49;16.47;;;9.73;;
19679;SDS011;9989;48.962;9.182;2024-03-17T00:33:15;18.77;;;12.20;;
19679;SDS011;9989;48.962;9.182;2024-03-17T00:35:41;20.23;;;12.00;;
19679;SDS011;9989;48.962;9.182;2024-03-17T00:38:06;17.37;;;11.23;;
19679;SDS011;9989;48.962;9.182;2024-03-17T00:40:38;19.03;;;11.70;;
19679;SDS011;9989;48.962;9.182;2024-03-17T00:43:05;17.97;;;11.80;;
19679;SDS011;9989;48.962;9.182;2024-03-17T00:45:31;18.47;;;11.60;;
19679;SDS011;9989;48.962;9.182;2024-03-17T00:47:57;18.80;;;11.37;;
19679;SDS011;9989;48.962;9.182;2024-03-17T00:50:22;20.17;;;12.57;;
19679;SDS011;9989;48.962;9.182;2024-03-17T00:52:48;18.00;;;11.30;;
19679;SDS011;9989;48.962;9.182;2024-03-17T00:55:13;16.33;;;10.77;;
19679;SDS011;9989;48.962;9.182;2024-03-17T00:57:39;19.60;;;12.47;;
19679;SDS011;9989;48.962;9.182;2024-03-17T01:00:09;16.80;;;10.30;;
19679;SDS011;9989;48.962;9.182;2024-03-17T01:02:36;17.87;;;11.50;;
19679;SDS011;9989;48.962;9.182;2024-03-17T01:05:02;15.40;;;10.47;;
19679;SDS011;9989;48.962;9.182;2024-03-17T01:07:30;17.10;;;10.80;;
19679;SDS011;9989;48.962;9.182;2024-03-17T01:09:56;18.43;;;11.63;;
19679;SDS011;9989;48.962;9.182;2024-03-17T01:12:22;19.53;;;12.33;;
19679;SDS011;9989;48.962;9.182;2024-03-17T01:14:47;22.13;;;12.00;;
19679;SDS011;9989;48.962;9.182;2024-03-17T01:17:13;19.33;;;11.97;;
19679;SDS011;9989;48.962;9.182;2024-03-17T01:19:38;18.47;;;11.50;;
19679;SDS011;9989;48.962;9.182;2024-03-17T01:22:04;17.73;;;11.00;;
19679;SDS011;9989;48.962;9.182;2024-03-17T01:24:29;17.27;;;10.33;;
19679;SDS011;9989;48.962;9.182;2024-03-17T01:26:57;18.00;;;11.07;;
19679;SDS011;9989;48.962;9.182;2024-03-17T01:29:23;19.30;;;11.00;;
19679;SDS011;9989;48.962;9.182;2024-03-17T01:31:49;17.80;;;11.03;;
19679;SDS011;9989;48.962;9.182;2024-03-17T01:34:15;15.37;;;9.80;;
19679;SDS011;9989;48.962;9.182;2024-03-17T01:36:41;16.97;;;9.23;;
19679;SDS011;9989;48.962;9.182;2024-03-17T01:39:07;15.27;;;9.47;;
19679;SDS011;9989;48.962;9.182;2024-03-17T01:41:32;14.80;;;8.77;;
19679;SDS011;9989;48.962;9.182;2024-03-17T01:43:58;15.10;;;8.73;;
19679;SDS011;9989;48.962;9.182;2024-03-17T01:46:24;14.13;;;8.30;;
19679;SDS011;9989;48.962;9.182;2024-03-17T01:48:49;13.83;;;7.23;;
19679;SDS011;9989;48.962;9.182;2024-03-17T01:51:16;14.83;;;8.03;;
19679;SDS011;9989;48.962;9.182;2024-03-17T01:53:43;16.27;;;8.23;;
19679;SDS011;9989;48.962;9.182;2024-03-17T01:56:10;13.73;;;8.10;;
19679;SDS011;9989;48.962;9.182;2024-03-17T01:58:36;16.60;;;8.30;;
19679;SDS011;9989;48.962;9.182;2024-03-17T02:01:02;13.17;;;7.70;;
19679;SDS011;9989;48.962;9.182;2024-03-17T02:03:31;12.97;;;7.57;;
19679;SDS011;9989;48.962;9.182;2024-03-17T02:05:58;12.27;;;7.43;;
19679;SDS011;9989;48.962;9.182;2024-03-17T02:08:23;14.87;;;8.47;;
19679;SDS011;9989;48.962;9.182;2024-03-17T02:10:53;12.33;;;7.37;;
19679;SDS011;9989;48.962;9.182;2024-03-17T02:13:20;13.63;;;7.37;;
19679;SDS011;9989;48.962;9.182;2024-03-17T02:15:46;15.20;;;9.30;;
19679;SDS011;9989;48.962;9.182;2024-03-17T02:18:12;15.47;;;8.27;;
19679;SDS011;9989;48.962;9.182;2024-03-17T02:20:38;15.27;;;8.30;;
19679;SDS011;9989;48.962;9.182;2024-03-17T02:23:25;15.97;;;8.77;;
19679;SDS011;9989;48.962;9.182;2024-03-17T02:25:52;17.67;;;9.13;;
19679;SDS011;9989;48.962;9.182;2024-03-17T02:28:18;15.87;;;8.63;;
19679;SDS011;9989;48.962;9.182;2024-03-17T02:30:43;14.37;;;8.13;;
19679;SDS011;9989;48.962;9.182;2024-03-17T02:33:09;20.60;;;9.83;;
19679;SDS011;9989;48.962;9.182;2024-03-17T02:35:35;16.70;;;9.43;;
19679;SDS011;9989;48.962;9.182;2024-03-17T02:38:01;16.63;;;9.43;;
19679;SDS011;9989;48.962;9.182;2024-03-17T02:40:27;16.10;;;9.20;;
19679;SDS011;9989;48.962;9.182;2024-03-17T02:42:53;16.47;;;9.20;;
19679;SDS011;9989;48.962;9.182;2024-03-17T02:45:20;15.37;;;8.70;;
19679;SDS011;9989;48.962;9.182;2024-03-17T02:47:46;17.80;;;9.67;;
19679;SDS011;9989;48.962;9.182;2024-03-17T02:50:11;17.37;;;8.70;;
19679;SDS011;9989;48.962;9.182;2024-03-17T02:52:38;13.57;;;7.70;;
19679;SDS011;9989;48.962;9.182;2024-03-17T02:55:04;13.67;;;8.00;;
19679;SDS011;9989;48.962;9.182;2024-03-17T02:57:30;13.93;;;7.97;;
19679;SDS011;9989;48.962;9.182;2024-03-17T02:59:57;13.43;;;8.17;;
19679;SDS011;9989;48.962;9.182;2024-03-17T03:02:23;12.63;;;7.47;;
19679;SDS011;9989;48.962;9.182;2024-03-17T03:04:49;14.27;;;7.57;;
19679;SDS011;9989;48.962;9.182;2024-03-17T03:07:15;11.70;;;7.20;;
19679;SDS011;9989;48.962;9.182;2024-03-17T03:09:40;13.47;;;7.73;;
19679;SDS011;9989;48.962;9.182;2024-03-17T03:12:06;12.43;;;6.93;;
19679;SDS011;9989;48.962;9.182;2024-03-17T03:14:35;13.77;;;8.20;;
19679;SDS011;9989;48.962;9.182;2024-03-17T03:17:00;11.93;;;6.83;;
19679;SDS011;9989;48.962;9.182;2024-03-17T03:19:26;13.93;;;7.77;;
19679;SDS011;9989;48.962;9.182;2024-03-17T03:21:52;11.60;;;6.43;;
19679;SDS011;9989;48.962;9.182;2024-03-17T03:24:18;13.03;;;7.37;;
19679;SDS011;9989;48.962;9.182;2024-03-17T03:26:44;12.33;;;7.03;;
19679;SDS011;9989;48.962;9.182;2024-03-17T03:29:10;13.03;;;7.27;;
19679;SDS011;9989;48.962;9.182;2024-03-17T03:31:36;13.90;;;7.33;;
19679;SDS011;9989;48.962;9.182;2024-03-17T03:34:04;11.90;;;7.03;;
19679;SDS011;9989;48.962;9.182;2024-03-17T03:36:32;15.77;;;7.53;;
19679;SDS011;9989;48.962;9.182;2024-03-17T03:38:58;13.27;;;7.13;;
19679;SDS011;9989;48.962;9.182;2024-03-17T03:41:24;13.03;;;7.57;;
19679;SDS011;9989;48.962;9.182;2024-03-17T03:43:49;14.10;;;7.63;;
19679;SDS011;9989;48.962;9.182;2024-03-17T03:46:15;14.57;;;7.60;;
19679;SDS011;9989;48.962;9.182;2024-03-17T03:48:41;12.93;;;7.97;;
19679;SDS011;9989;48.962;9.182;2024-03-17T03:51:07;14.03;;;8.13;;
19679;SDS011;9989;48.962;9.182;2024-03-17T03:53:34;14.20;;;7.60;;
19679;SDS011;9989;48.962;9.182;2024-03-17T03:56:02;14.83;;;8.73;;
19679;SDS011;9989;48.962;9.182;2024-03-17T03:58:31;13.67;;;7.87;;
19679;SDS011;9989;48.962;9.182;2024-03-17T04:00:59;17.10;;;9.17;;
19679;SDS011;9989;48.962;9.182;2024-03-17T04:03:25;14.87;;;8.10;;
19679;SDS011;9989;48.962;9.182;2024-03-17T04:05:51;14.27;;;8.13;;
19679;SDS011;9989;48.962;9.182;2024-03-17T04:08:18;16.17;;;8.93;;
19679;SDS011;9989;48.962;9.182;2024-03-17T04:10:44;14.73;;;8.17;;
19679;SDS011;9989;48.962;9.182;2024-03-17T04:13:10;17.30;;;8.73;;
19679;SDS011;9989;48.962;9.182;2024-03-17T04:15:35;14.63;;;8.63;;
19679;SDS011;9989;48.962;9.182;2024-03-17T04:18:02;14.40;;;8.37;;
19679;SDS011;9989;48.962;9.182;2024-03-17T04:20:28;15.57;;;8.10;;
19679;SDS011;9989;48.962;9.182;2024-03-17T04:22:54;15.43;;;8.90;;
19679;SDS011;9989;48.962;9.182;2024-03-17T04:25:19;14.50;;;8.50;;
19679;SDS011;9989;48.962;9.182;2024-03-17T04:27:45;14.87;;;9.50;;
19679;SDS011;9989;48.962;9.182;2024-03-17T04:30:10;16.50;;;9.33;;
19679;SDS011;9989;48.962;9.182;2024-03-17T04:32:37;15.40;;;9.33;;
19679;SDS011;9989;48.962;9.182;2024-03-17T04:35:02;15.10;;;8.90;;
19679;SDS011;9989;48.962;9.182;2024-03-17T04:37:28;14.20;;;8.63;;
19679;SDS011;9989;48.962;9.182;2024-03-17T04:39:54;16.03;;;9.13;;
19679;SDS011;9989;48.962;9.182;2024-03-17T04:42:22;14.97;;;8.77;;
19679;SDS011;9989;48.962;9.182;2024-03-17T04:44:48;15.43;;;9.13;;
19679;SDS011;9989;48.962;9.182;2024-03-17T04:47:13;14.33;;;8.60;;
19679;SDS011;9989;48.962;9.182;2024-03-17T04:49:39;15.57;;;9.60;;
19679;SDS011;9989;48.962;9.182;2024-03-17T04:52:07;17.00;;;10.03;;
19679;SDS011;9989;48.962;9.182;2024-03-17T04:54:35;15.83;;;9.40;;
19679;SDS011;9989;48.962;9.182;2024-03-17T04:57:01;16.97;;;9.30;;
19679;SDS011;9989;48.962;9.182;2024-03-17T04:59:28;16.70;;;10.40;;
19679;SDS011;9989;48.962;9.182;2024-03-17T05:01:54;14.80;;;8.67;;
19679;SDS011;9989;48.962;9.182;2024-03-17T05:04:19;19.67;;;9.97;;
19679;SDS011;9989;48.962;9.182;2024-03-17T05:06:45;14.53;;;8.53;;
19679;SDS011;9989;48.962;9.182;2024-03-17T05:09:12;17.77;;;9.27;;
19679;SDS011;9989;48.962;9.182;2024-03-17T05:11:38;14.70;;;9.10;;
19679;SDS011;9989;48.962;9.182;2024-03-17T05:14:05;17.17;;;8.50;;
19679;SDS011;9989;48.962;9.182;2024-03-17T05:16:30;14.60;;;8.60;;
19679;SDS011;9989;48.962;9.182;2024-03-17T05:18:56;15.23;;;8.93;;
19679;SDS011;9989;48.962;9.182;2024-03-17T05:21:21;16.40;;;8.87;;
19679;SDS011;9989;48.962;9.182;2024-03-17T05:23:48;18.43;;;8.07;;
19679;SDS011;9989;48.962;9.182;2024-03-17T05:26:14;14.90;;;8.73;;
19679;SDS011;9989;48.962;9.182;2024-03-17T05:28:40;17.10;;;8.27;;
19679;SDS011;9989;48.962;9.182;2024-03-17T05:31:06;17.13;;;8.10;;
19679;SDS011;9989;48.962;9.182;2024-03-17T05:33:31;15.03;;;7.93;;
19679;SDS011;9989;48.962;9.182;2024-03-17T05:35:57;15.13;;;7.93;;
19679;SDS011;9989;48.962;9.182;2024-03-17T05:38:28;14.30;;;8.03;;
19679;SDS011;9989;48.962;9.182;2024-03-17T05:40:58;27.70;;;8.73;;
19679;SDS011;9989;48.962;9.182;2024-03-17T05:43:26;16.67;;;8.87;;
19679;SDS011;9989;48.962;9.182;2024-03-17T05:45:52;25.47;;;8.17;;
19679;SDS011;9989;48.962;9.182;2024-03-17T05:48:19;13.37;;;7.57;;
19679;SDS011;9989;48.962;9.182;2024-03-17T05:50:45;13.97;;;8.20;;
19679;SDS011;9989;48.962;9.182;2024-03-17T05:53:11;13.17;;;7.77;;
19679;SDS011;9989;48.962;9.182;2024-03-17T05:55:37;14.17;;;7.37;;
19679;SDS011;9989;48.962;9.182;2024-03-17T05:58:03;12.43;;;6.97;;
19679;SDS011;9989;48.962;9.182;2024-03-17T06:00:28;13.50;;;6.50;;
19679;SDS011;9989;48.962;9.182;2024-03-17T06:02:55;11.70;;;6.93;;
19679;SDS011;9989;48.962;9.182;2024-03-17T06:05:21;11.60;;;6.17;;
19679;SDS011;9989;48.962;9.182;2024-03-17T06:07:47;10.93;;;6.17;;
19679;SDS011;9989;48.962;9.182;2024-03-17T06:10:13;11.73;;;6.40;;
19679;SDS011;9989;48.962;9.182;2024-03-17T06:12:39;10.27;;;6.07;;
19679;SDS011;9989;48.962;9.182;2024-03-17T06:15:04;17.73;;;6.03;;
19679;SDS011;9989;48.962;9.182;2024-03-17T06:17:31;12.43;;;6.23;;
19679;SDS011;9989;48.962;9.182;2024-03-17T06:19:57;11.67;;;6.27;;
19679;SDS011;9989;48.962;9.182;2024-03-17T06:22:22;11.03;;;6.43;;
19679;SDS011;9989;48.962;9.182;2024-03-17T06:24:49;11.63;;;6.37;;
19679;SDS011;9989;48.962;9.182;2024-03-17T06:27:15;11.07;;;6.23;;
19679;SDS011;9989;48.962;9.182;2024-03-17T06:29:41;9.83;;;5.23;;
19679;SDS011;9989;48.962;9.182;2024-03-17T06:32:07;10.40;;;5.90;;
19679;SDS011;9989;48.962;9.182;2024-03-17T06:34:33;10.93;;;5.00;;
19679;SDS011;9989;48.962;9.182;2024-03-17T06:36:59;10.10;;;5.20;;
19679;SDS011;9989;48.962;9.182;2024-03-17T06:39:25;10.27;;;5.13;;
19679;SDS011;9989;48.962;9.182;2024-03-17T06:41:51;11.03;;;5.53;;
19679;SDS011;9989;48.962;9.182;2024-03-17T06:44:16;15.03;;;5.10;;
19679;SDS011;9989;48.962;9.182;2024-03-17T06:46:42;9.20;;;5.10;;
19679;SDS011;9989;48.962;9.182;2024-03-17T06:49:09;9.70;;;5.33;;
19679;SDS011;9989;48.962;9.182;2024-03-17T06:51:34;11.10;;;6.23;;
19679;SDS011;9989;48.962;9.182;2024-03-17T06:54:00;9.70;;;5.40;;
19679;SDS011;9989;48.962;9.182;2024-03-17T06:56:26;11.83;;;6.10;;
19679;SDS011;9989;48.962;9.182;2024-03-17T06:58:51;11.20;;;6.27;;
19679;SDS011;9989;48.962;9.182;2024-03-17T07:01:17;11.70;;;6.03;;
19679;SDS011;9989;48.962;9.182;2024-03-17T07:03:44;14.43;;;6.10;;
19679;SDS011;9989;48.962;9.182;2024-03-17T07:06:09;10.23;;;5.67;;
19679;SDS011;9989;48.962;9.182;2024-03-17T07:08:35;10.60;;;5.30;;
19679;SDS011;9989;48.962;9.182;2024-03-17T07:11:02;11.23;;;5.87;;
19679;SDS011;9989;48.962;9.182;2024-03-17T07:13:30;10.07;;;5.63;;
19679;SDS011;9989;48.962;9.182;2024-03-17T07:15:57;13.57;;;6.33;;
19679;SDS011;9989;48.962;9.182;2024-03-17T07:18:27;12.30;;;6.23;;
19679;SDS011;9989;48.962;9.182;2024-03-17T07:20:53;10.13;;;5.90;;
19679;SDS011;9989;48.962;9.182;2024-03-17T07:23:23;9.47;;;5.17;;
19679;SDS011;9989;48.962;9.182;2024-03-17T07:25:53;9.97;;;5.33;;
19679;SDS011;9989;48.962;9.182;2024-03-17T07:28:19;9.53;;;5.23;;
19679;SDS011;9989;48.962;9.182;2024-03-17T07:30:48;9.90;;;5.43;;
19679;SDS011;9989;48.962;9.182;2024-03-17T07:33:15;11.57;;;5.67;;
19679;SDS011;9989;48.962;9.182;2024-03-17T07:35:48;11.43;;;5.63;;
19679;SDS011;9989;48.962;9.182;2024-03-17T07:38:13;11.10;;;5.80;;
19679;SDS011;9989;48.962;9.182;2024-03-17T07:40:40;12.13;;;6.13;;
19679;SDS011;9989;48.962;9.182;2024-03-17T07:43:05;9.33;;;5.67;;
19679;SDS011;9989;48.962;9.182;2024-03-17T07:45:31;11.80;;;6.13;;
19679;SDS011;9989;48.962;9.182;2024-03-17T07:47:56;12.97;;;6.73;;
19679;SDS011;9989;48.962;9.182;2024-03-17T07:50:22;10.37;;;5.87;;
19679;SDS011;9989;48.962;9.182;2024-03-17T07:52:47;10.07;;;5.53;;
19679;SDS011;9989;48.962;9.182;2024-03-17T07:55:13;11.37;;;6.63;;
19679;SDS011;9989;48.962;9.182;2024-03-17T07:57:39;11.57;;;7.10;;
19679;SDS011;9989;48.962;9.182;2024-03-17T08:00:06;12.43;;;7.70;;
19679;SDS011;9989;48.962;9.182;2024-03-17T08:02:40;11.20;;;6.90;;
19679;SDS011;9989;48.962;9.182;2024-03-17T08:05:15;11.80;;;7.23;;
19679;SDS011;9989;48.962;9.182;2024-03-17T08:07:41;11.17;;;6.80;;
19679;SDS011;9989;48.962;9.182;2024-03-17T08:10:10;9.87;;;5.90;;
19679;SDS011;9989;48.962;9.182;2024-03-17T08:12:35;10.10;;;5.83;;
19679;SDS011;9989;48.962;9.182;2024-03-17T08:15:01;10.03;;;5.73;;
19679;SDS011;9989;48.962;9.182;2024-03-17T08:17:26;11.03;;;5.87;;
19679;SDS011;9989;48.962;9.182;2024-03-17T08:19:52;11.93;;;5.40;;
19679;SDS011;9989;48.962;9.182;2024-03-17T08:22:18;10.67;;;5.90;;
19679;SDS011;9989;48.962;9.182;2024-03-17T08:24:44;10.93;;;5.73;;
19679;SDS011;9989;48.962;9.182;2024-03-17T08:27:09;10.37;;;5.80;;
19679;SDS011;9989;48.962;9.182;2024-03-17T08:29:35;11.00;;;5.97;;
19679;SDS011;9989;48.962;9.182;2024-03-17T08:32:00;9.80;;;5.73;;
19679;SDS011;9989;48.962;9.182;2024-03-17T08:34:26;11.60;;;6.00;;
19679;SDS011;9989;48.962;9.182;2024-03-17T08:36:52;9.57;;;4.83;;
19679;SDS011;9989;48.962;9.182;2024-03-17T08:39:18;9.63;;;5.23;;
19679;SDS011;9989;48.962;9.182;2024-03-17T08:41:44;10.07;;;5.97;;
19679;SDS011;9989;48.962;9.182;2024-03-17T08:44:10;13.30;;;6.07;;
19679;SDS011;9989;48.962;9.182;2024-03-17T08:46:36;10.93;;;6.57;;
19679;SDS011;9989;48.962;9.182;2024-03-17T08:49:02;9.97;;;5.83;;
19679;SDS011;9989;48.962;9.182;2024-03-17T08:51:28;9.80;;;6.17;;
19679;SDS011;9989;48.962;9.182;2024-03-17T08:53:54;11.23;;;6.87;;
19679;SDS011;9989;48.962;9.182;2024-03-17T08:56:19;9.73;;;5.60;;
19679;SDS011;9989;48.962;9.182;2024-03-17T08:58:48;10.93;;;5.93;;
19679;SDS011;9989;48.962;9.182;2024-03-17T09:01:14;10.63;;;5.73;;
19679;SDS011;9989;48.962;9.182;2024-03-17T09:03:41;9.80;;;5.50;;
19679;SDS011;9989;48.962;9.182;2024-03-17T09:06:17;10.83;;;6.30;;
19679;SDS011;9989;48.962;9.182;2024-03-17T09:08:44;10.87;;;6.70;;
19679;SDS011;9989;48.962;9.182;2024-03-17T09:11:11;11.60;;;7.27;;
19679;SDS011;9989;48.962;9.182;2024-03-17T09:13:38;11.60;;;7.17;;
19679;SDS011;9989;48.962;9.182;2024-03-17T09:16:03;11.60;;;6.80;;
19679;SDS011;9989;48.962;9.182;2024-03-17T09:18:30;11.90;;;8.10;;
19679;SDS011;9989;48.962;9.182;2024-03-17T09:21:06;11.83;;;6.60;;
19679;SDS011;9989;48.962;9.182;2024-03-17T09:23:33;12.20;;;7.90;;
19679;SDS011;9989;48.962;9.182;2024-03-17T09:26:02;11.80;;;7.27;;
19679;SDS011;9989;48.962;9.182;2024-03-17T09:28:30;12.80;;;8.23;;
19679;SDS011;9989;48.962;9.182;2024-03-17T09:30:56;13.40;;;8.97;;
19679;SDS011;9989;48.962;9.182;2024-03-17T09:33:23;12.70;;;8.70;;
19679;SDS011;9989;48.962;9.182;2024-03-17T09:35:56;11.40;;;8.03;;
19679;SDS011;9989;48.962;9.182;2024-03-17T09:38:23;11.83;;;8.70;;
19679;SDS011;9989;48.962;9.182;2024-03-17T09:40:49;13.53;;;9.10;;
19679;SDS011;9989;48.962;9.182;2024-03-17T09:43:18;14.70;;;9.10;;
19679;SDS011;9989;48.962;9.182;2024-03-17T09:45:50;11.30;;;8.53;;
19679;SDS011;9989;48.962;9.182;2024-03-17T09:48:20;11.37;;;8.07;;
19679;SDS011;9989;48.962;9.182;2024-03-17T09:50:50;13.47;;;9.37;;
19679;SDS011;9989;48.962;9.182;2024-03-17T09:53:17;14.47;;;9.90;;
19679;SDS011;9989;48.962;9.182;2024-03-17T09:56:00;15.73;;;11.37;;
19679;SDS011;9989;48.962;9.182;2024-03-17T09:58:31;13.50;;;9.50;;
19679;SDS011;9989;48.962;9.182;2024-03-17T10:00:56;16.03;;;9.40;;
19679;SDS011;9989;48.962;9.182;2024-03-17T10:03:41;10.43;;;7.27;;
19679;SDS011;9989;48.962;9.182;2024-03-17T10:06:07;12.87;;;8.63;;
19679;SDS011;9989;48.962;9.182;2024-03-17T10:08:39;12.00;;;8.03;;
19679;SDS011;9989;48.962;9.182;2024-03-17T10:11:05;14.83;;;9.83;;
19679;SDS011;9989;48.962;9.182;2024-03-17T10:13:31;13.10;;;8.87;;
19679;SDS011;9989;48.962;9.182;2024-03-17T10:15:57;12.70;;;8.30;;
19679;SDS011;9989;48.962;9.182;2024-03-17T10:18:22;11.10;;;8.40;;
19679;SDS011;9989;48.962;9.182;2024-03-17T10:20:48;12.33;;;7.30;;
19679;SDS011;9989;48.962;9.182;2024-03-17T10:23:21;11.30;;;7.80;;
19679;SDS011;9989;48.962;9.182;2024-03-17T10:25:47;12.03;;;7.83;;
19679;SDS011;9989;48.962;9.182;2024-03-17T10:28:14;11.00;;;7.47;;
19679;SDS011;9989;48.962;9.182;2024-03-17T10:30:41;10.17;;;7.03;;
19679;SDS011;9989;48.962;9.182;2024-03-17T10:33:22;11.13;;;6.83;;
19679;SDS011;9989;48.962;9.182;2024-03-17T10:35:50;11.93;;;7.57;;
19679;SDS011;9989;48.962;9.182;2024-03-17T10:38:22;10.10;;;6.73;;
19679;SDS011;9989;48.962;9.182;2024-03-17T10:40:48;9.03;;;5.47;;
19679;SDS011;9989;48.962;9.182;2024-03-17T10:43:13;8.87;;;5.10;;
19679;SDS011;9989;48.962;9.182;2024-03-17T10:45:39;7.90;;;4.50;;
19679;SDS011;9989;48.962;9.182;2024-03-17T10:48:07;10.73;;;6.67;;
19679;SDS011;9989;48.962;9.182;2024-03-17T10:50:35;10.10;;;5.40;;
19679;SDS011;9989;48.962;9.182;2024-03-17T10:53:03;8.63;;;5.03;;
19679;SDS011;9989;48.962;9.182;2024-03-17T10:55:36;9.10;;;4.30;;
19679;SDS011;9989;48.962;9.182;2024-03-17T10:58:07;8.17;;;4.67;;
19679;SDS011;9989;48.962;9.182;2024-03-17T11:00:58;8.13;;;3.70;;
19679;SDS011;9989;48.962;9.182;2024-03-17T11:03:27;8.40;;;4.43;;
19679;SDS011;9989;48.962;9.182;2024-03-17T11:05:56;7.87;;;4.57;;
19679;SDS011;9989;48.962;9.182;2024-03-17T11:08:23;8.20;;;4.50;;
19679;SDS011;9989;48.962;9.182;2024-03-17T11:10:50;6.40;;;3.00;;
19679;SDS011;9989;48.962;9.182;2024-03-17T11:13:24;6.93;;;2.57;;
19679;SDS011;9989;48.962;9.182;2024-03-17T11:15:54;6.27;;;2.30;;
19679;SDS011;9989;48.962;9.182;2024-03-17T11:21:02;4.43;;;2.20;;
19679;SDS011;9989;48.962;9.182;2024-03-17T11:23:33;5.10;;;2.60;;
19679;SDS011;9989;48.962;9.182;2024-03-17T11:26:03;7.37;;;3.60;;
19679;SDS011;9989;48.962;9.182;2024-03-17T11:34:00;7.77;;;3.57;;
19679;SDS011;9989;48.962;9.182;2024-03-17T11:36:32;6.90;;;3.37;;
19679;SDS011;9989;48.962;9.182;2024-03-17T11:41:43;6.00;;;2.40;;
19679;SDS011;9989;48.962;9.182;2024-03-17T11:46:39;8.00;;;3.00;;
19679;SDS011;9989;48.962;9.182;2024-03-17T11:49:06;8.63;;;2.90;;
19679;SDS011;9989;48.962;9.182;2024-03-17T11:51:35;6.20;;;2.67;;
19679;SDS011;9989;48.962;9.182;2024-03-17T11:54:04;6.03;;;2.67;;
19679;SDS011;9989;48.962;9.182;2024-03-17T11:56:30;7.20;;;3.10;;
19679;SDS011;9989;48.962;9.182;2024-03-17T11:59:06;8.37;;;3.87;;
19679;SDS011;9989;48.962;9.182;2024-03-17T12:01:34;5.83;;;2.80;;
19679;SDS011;9989;48.962;9.182;2024-03-17T12:04:00;5.23;;;2.40;;
19679;SDS011;9989;48.962;9.182;2024-03-17T12:06:30;7.00;;;2.80;;
19679;SDS011;9989;48.962;9.182;2024-03-17T12:09:18;6.63;;;3.07;;
19679;SDS011;9989;48.962;9.182;2024-03-17T12:12:09;7.17;;;3.50;;
19679;SDS011;9989;48.962;9.182;2024-03-17T12:14:37;6.37;;;3.07;;
19679;SDS011;9989;48.962;9.182;2024-03-17T12:17:04;7.27;;;2.87;;
19679;SDS011;9989;48.962;9.182;2024-03-17T12:19:37;7.03;;;2.90;;
19679;SDS011;9989;48.962;9.182;2024-03-17T12:22:03;7.63;;;3.47;;
19679;SDS011;9989;48.962;9.182;2024-03-17T12:24:30;6.90;;;3.30;;
19679;SDS011;9989;48.962;9.182;2024-03-17T12:26:58;7.40;;;4.13;;
19679;SDS011;9989;48.962;9.182;2024-03-17T12:31:55;7.50;;;3.50;;
19679;SDS011;9989;48.962;9.182;2024-03-17T12:34:24;7.80;;;3.57;;
19679;SDS011;9989;48.962;9.182;2024-03-17T12:36:54;7.00;;;3.23;;
19679;SDS011;9989;48.962;9.182;2024-03-17T12:39:24;4.73;;;2.60;;
19679;SDS011;9989;48.962;9.182;2024-03-17T12:42:08;8.17;;;3.50;;
19679;SDS011;9989;48.962;9.182;2024-03-17T12:44:35;9.53;;;4.33;;
19679;SDS011;9989;48.962;9.182;2024-03-17T12:47:17;9.53;;;4.50;;
19679;SDS011;9989;48.962;9.182;2024-03-17T12:49:44;8.47;;;4.50;;
19679;SDS011;9989;48.962;9.182;2024-03-17T12:52:24;8.90;;;4.27;;
19679;SDS011;9989;48.962;9.182;2024-03-17T12:55:09;9.43;;;3.90;;
19679;SDS011;9989;48.962;9.182;2024-03-17T13:01:06;7.47;;;3.47;;
19679;SDS011;9989;48.962;9.182;2024-03-17T13:03:35;7.10;;;3.50;;
19679;SDS011;9989;48.962;9.182;2024-03-17T13:06:01;6.97;;;3.70;;
19679;SDS011;9989;48.962;9.182;2024-03-17T13:08:29;8.17;;;3.87;;
19679;SDS011;9989;48.962;9.182;2024-03-17T13:10:56;8.17;;;3.97;;
19679;SDS011;9989;48.962;9.182;2024-03-17T13:13:22;8.40;;;3.93;;
19679;SDS011;9989;48.962;9.182;2024-03-17T13:15:48;8.07;;;3.57;;
19679;SDS011;9989;48.962;9.182;2024-03-17T13:18:17;6.50;;;3.03;;
19679;SDS011;9989;48.962;9.182;2024-03-17T13:20:44;9.30;;;3.80;;
19679;SDS011;9989;48.962;9.182;2024-03-17T13:23:18;7.70;;;3.83;;
19679;SDS011;9989;48.962;9.182;2024-03-17T13:25:44;7.17;;;3.03;;
19679;SDS011;9989;48.962;9.182;2024-03-17T13:28:10;8.47;;;4.17;;
19679;SDS011;9989;48.962;9.182;2024-03-17T13:30:36;7.60;;;3.87;;
19679;SDS011;9989;48.962;9.182;2024-03-17T13:33:02;9.00;;;3.23;;
19679;SDS011;9989;48.962;9.182;2024-03-17T13:35:33;6.13;;;2.80;;
19679;SDS011;9989;48.962;9.182;2024-03-17T13:38:00;7.97;;;3.27;;
19679;SDS011;9989;48.962;9.182;2024-03-17T13:40:27;5.87;;;3.13;;
19679;SDS011;9989;48.962;9.182;2024-03-17T13:42:54;9.00;;;4.37;;
19679;SDS011;9989;48.962;9.182;2024-03-17T13:45:21;8.03;;;4.50;;
19679;SDS011;9989;48.962;9.182;2024-03-17T13:47:53;7.23;;;3.33;;
19679;SDS011;9989;48.962;9.182;2024-03-17T13:50:23;7.27;;;3.17;;
19679;SDS011;9989;48.962;9.182;2024-03-17T13:52:49;6.10;;;2.97;;
19679;SDS011;9989;48.962;9.182;2024-03-17T13:57:45;6.13;;;3.27;;
19679;SDS011;9989;48.962;9.182;2024-03-17T14:00:22;7.07;;;3.37;;
19679;SDS011;9989;48.962;9.182;2024-03-17T14:02:49;10.83;;;3.90;;
19679;SDS011;9989;48.962;9.182;2024-03-17T14:05:17;9.07;;;3.53;;
19679;SDS011;9989;48.962;9.182;2024-03-17T14:07:44;7.67;;;4.00;;
19679;SDS011;9989;48.962;9.182;2024-03-17T14:10:10;8.07;;;3.63;;
19679;SDS011;9989;48.962;9.182;2024-03-17T14:12:37;8.57;;;3.37;;
19679;SDS011;9989;48.962;9.182;2024-03-17T14:15:04;7.00;;;3.13;;
19679;SDS011;9989;48.962;9.182;2024-03-17T14:17:31;6.60;;;3.17;;
19679;SDS011;9989;48.962;9.182;2024-03-17T14:19:57;7.93;;;3.00;;
19679;SDS011;9989;48.962;9.182;2024-03-17T14:22:23;10.60;;;4.33;;
19679;SDS011;9989;48.962;9.182;2024-03-17T14:24:48;7.00;;;3.73;;
19679;SDS011;9989;48.962;9.182;2024-03-17T14:27:14;7.63;;;4.40;;
19679;SDS011;9989;48.962;9.182;2024-03-17T14:29:41;7.97;;;4.20;;
19679;SDS011;9989;48.962;9.182;2024-03-17T14:32:06;9.00;;;4.17;;
19679;SDS011;9989;48.962;9.182;2024-03-17T14:34:32;7.53;;;3.20;;
19679;SDS011;9989;48.962;9.182;2024-03-17T14:37:01;7.30;;;3.40;;
19679;SDS011;9989;48.962;9.182;2024-03-17T14:39:27;6.30;;;2.90;;
19679;SDS011;9989;48.962;9.182;2024-03-17T14:41:54;6.83;;;2.97;;
19679;SDS011;9989;48.962;9.182;2024-03-17T14:44:20;6.30;;;3.30;;
19679;SDS011;9989;48.962;9.182;2024-03-17T14:46:46;7.53;;;3.30;;
19679;SDS011;9989;48.962;9.182;2024-03-17T14:49:16;7.80;;;3.50;;
19679;SDS011;9989;48.962;9.182;2024-03-17T14:51:42;8.67;;;3.87;;
19679;SDS011;9989;48.962;9.182;2024-03-17T14:54:07;5.63;;;2.60;;
19679;SDS011;9989;48.962;9.182;2024-03-17T14:56:34;7.07;;;3.03;;
19679;SDS011;9989;48.962;9.182;2024-03-17T14:59:00;7.03;;;2.90;;
19679;SDS011;9989;48.962;9.182;2024-03-17T15:01:26;7.00;;;2.57;;
19679;SDS011;9989;48.962;9.182;2024-03-17T15:03:54;7.53;;;2.77;;
19679;SDS011;9989;48.962;9.182;2024-03-17T15:06:20;6.83;;;2.83;;
19679;SDS011;9989;48.962;9.182;2024-03-17T15:08:46;5.80;;;3.00;;
19679;SDS011;9989;48.962;9.182;2024-03-17T15:11:11;7.33;;;3.03;;
19679;SDS011;9989;48.962;9.182;2024-03-17T15:13:37;6.00;;;2.53;;